Terminal Aerodrome Forecast
Issued by NWS Charleston, WV

Current Version | Previous Version | Graphics & Text | Print | Product List | Glossary On
Versions: 1 2 3 4 5 6 7 8 9 10 11 12 13 14 15 16 17 18 19 20 21 22 23 24 25 26 27 28 29 30 31
000
FTUS41 KRLX 262345
TAFCRW
TAF
KCRW 262345Z 2700/2724 00000KT P6SM SCT050
     FM270300 00000KT 6SM BR BKN100
     FM271100 00000KT 6SM BR BKN100
     FM271400 00000KT 6SM HZ BKN050=

USA.gov is the U.S. government's official web portal to all federal, state and local government web resources and services.